createdAt,value
2022-09-15T00:01:48.561Z,20.42
2022-09-15T00:04:15.139Z,20.42
2022-09-15T00:06:41.841Z,20.42
2022-09-15T00:09:08.379Z,20.40
2022-09-15T00:11:36.930Z,20.39
2022-09-15T00:14:05.814Z,20.38
2022-09-15T00:16:32.963Z,20.36
2022-09-15T00:19:00.728Z,20.32
2022-09-15T00:21:30.508Z,20.29
2022-09-15T00:23:59.099Z,20.29
2022-09-15T00:26:28.072Z,20.26
2022-09-15T00:28:56.238Z,20.23
2022-09-15T00:31:23.914Z,20.09
2022-09-15T00:33:54.132Z,20.16
2022-09-15T00:36:21.821Z,20.13
2022-09-15T00:38:48.575Z,20.10
2022-09-15T00:41:18.034Z,20.07
2022-09-15T00:43:58.218Z,20.04
2022-09-15T00:46:39.477Z,20.01
2022-09-15T00:49:08.761Z,20.00
2022-09-15T00:51:45.912Z,19.96
2022-09-15T00:54:17.750Z,19.95
2022-09-15T00:56:48.258Z,19.93
2022-09-15T00:59:18.944Z,19.92
2022-09-15T01:01:46.885Z,19.92
2022-09-15T01:04:15.165Z,19.91
2022-09-15T01:06:44.887Z,19.80
2022-09-15T01:09:19.131Z,19.90
2022-09-15T01:11:45.632Z,19.90
2022-09-15T01:14:12.383Z,19.91
2022-09-15T01:17:20.647Z,19.89
2022-09-15T01:20:24.770Z,19.88
2022-09-15T01:22:57.052Z,19.92
2022-09-15T01:26:15.203Z,19.92
2022-09-15T01:28:59.716Z,19.93
2022-09-15T01:31:35.396Z,19.94
2022-09-15T01:34:13.875Z,19.96
2022-09-15T01:36:53.623Z,19.95
2022-09-15T01:39:25.710Z,19.94
2022-09-15T01:41:59.341Z,19.97
2022-09-15T01:45:00.803Z,19.92
2022-09-15T01:47:29.887Z,19.95
2022-09-15T01:50:21.143Z,19.92
2022-09-15T01:52:52.723Z,19.95
2022-09-15T01:55:33.680Z,19.95
2022-09-15T01:58:00.235Z,19.96
2022-09-15T02:00:26.712Z,19.97
2022-09-15T02:02:59.389Z,19.97
2022-09-15T02:05:42.965Z,19.94
2022-09-15T02:08:16.760Z,19.97
2022-09-15T02:10:53.457Z,19.97
2022-09-15T02:13:32.386Z,19.98
2022-09-15T02:16:00.394Z,19.98
2022-09-15T02:18:37.105Z,19.85
2022-09-15T02:21:10.484Z,19.94
2022-09-15T02:23:47.415Z,19.97
2022-09-15T02:26:17.277Z,19.97
2022-09-15T02:28:47.401Z,19.99
2022-09-15T02:31:17.895Z,20.01
2022-09-15T02:33:54.200Z,20.01
2022-09-15T02:36:21.782Z,20.03
2022-09-15T02:38:55.001Z,20.03
2022-09-15T02:41:21.537Z,20.05
2022-09-15T02:43:48.918Z,20.05
2022-09-15T02:46:18.189Z,20.04
2022-09-15T02:48:44.658Z,20.04
2022-09-15T02:51:11.641Z,20.02
2022-09-15T02:53:38.333Z,20.04
2022-09-15T02:56:05.411Z,20.01
2022-09-15T02:58:33.153Z,20.02
2022-09-15T03:01:03.829Z,19.97
2022-09-15T03:03:31.546Z,19.96
2022-09-15T03:05:58.996Z,19.94
2022-09-15T03:08:25.602Z,19.94
2022-09-15T03:10:52.033Z,19.92
2022-09-15T03:13:18.603Z,19.91
2022-09-15T03:15:45.063Z,19.91
2022-09-15T03:18:11.600Z,19.92
2022-09-15T03:20:38.075Z,19.91
2022-09-15T03:23:04.553Z,19.91
2022-09-15T03:25:32.015Z,19.89
2022-09-15T03:27:58.532Z,19.89
2022-09-15T03:30:27.931Z,19.89
2022-09-15T03:32:54.378Z,19.89
2022-09-15T03:35:21.066Z,19.88
2022-09-15T03:37:47.539Z,19.88
2022-09-15T03:40:14.047Z,19.85
2022-09-15T03:42:40.530Z,19.84
2022-09-15T03:45:07.532Z,19.83
2022-09-15T03:47:34.032Z,19.81
2022-09-15T03:50:00.513Z,19.82
2022-09-15T03:52:30.592Z,19.82
2022-09-15T03:54:57.170Z,19.82
2022-09-15T03:57:23.709Z,19.84
2022-09-15T03:59:50.241Z,19.85
2022-09-15T04:02:16.772Z,19.86
2022-09-15T04:04:43.291Z,19.88
2022-09-15T04:07:09.809Z,19.89
2022-09-15T04:09:36.445Z,19.91
2022-09-15T04:12:03.933Z,19.93
2022-09-15T04:14:30.555Z,19.97
2022-09-15T04:16:57.064Z,19.98
2022-09-15T04:19:23.496Z,20.01
2022-09-15T04:21:52.786Z,20.02
2022-09-15T04:24:19.303Z,20.04
2022-09-15T04:26:46.007Z,20.05
2022-09-15T04:29:15.323Z,20.07
2022-09-15T04:31:42.435Z,20.08
2022-09-15T04:34:09.395Z,20.07
2022-09-15T04:36:35.939Z,20.09
2022-09-15T04:39:02.580Z,20.08
2022-09-15T04:41:29.138Z,20.08
2022-09-15T04:43:55.827Z,20.08
2022-09-15T04:46:22.444Z,20.08
2022-09-15T04:48:48.979Z,20.07
2022-09-15T04:51:20.967Z,20.05
2022-09-15T04:53:48.058Z,20.05
2022-09-15T04:56:18.025Z,20.06
2022-09-15T04:58:46.895Z,20.03
2022-09-15T05:01:16.260Z,20.05
2022-09-15T05:03:43.574Z,20.06
2022-09-15T05:06:13.923Z,20.08
2022-09-15T05:08:40.920Z,20.09
2022-09-15T05:11:10.724Z,20.08
2022-09-15T05:13:38.482Z,20.09
2022-09-15T05:16:07.694Z,20.09
2022-09-15T05:18:34.972Z,20.10
2022-09-15T05:21:03.033Z,20.11
2022-09-15T05:23:29.506Z,20.06
2022-09-15T05:26:00.639Z,20.17
2022-09-15T05:28:27.768Z,20.23
2022-09-15T05:30:55.508Z,20.25
2022-09-15T05:33:23.653Z,20.26
2022-09-15T05:35:57.119Z,20.16
2022-09-15T05:38:25.416Z,20.27
2022-09-15T05:40:51.975Z,20.30
2022-09-15T05:43:18.719Z,20.29
2022-09-15T05:45:54.402Z,20.27
2022-09-15T05:48:20.962Z,20.26
2022-09-15T05:50:51.980Z,20.21
2022-09-15T05:53:19.624Z,20.21
2022-09-15T05:55:46.282Z,20.19
2022-09-15T05:58:13.941Z,20.18
2022-09-15T06:00:42.992Z,20.14
2022-09-15T06:03:14.913Z,20.11
2022-09-15T06:05:42.273Z,20.09
2022-09-15T06:08:09.218Z,20.08
2022-09-15T06:10:35.767Z,20.08
2022-09-15T06:13:02.330Z,20.06
2022-09-15T06:15:28.899Z,20.00
2022-09-15T06:17:55.440Z,20.00
2022-09-15T06:20:22.127Z,19.97
2022-09-15T06:22:48.623Z,19.97
2022-09-15T06:25:15.388Z,19.97
2022-09-15T06:27:42.372Z,19.99
2022-09-15T06:30:09.882Z,20.02
2022-09-15T06:32:36.977Z,20.04
2022-09-15T06:35:04.636Z,20.08
2022-09-15T06:37:31.177Z,20.12
2022-09-15T06:39:57.827Z,20.15
2022-09-15T06:42:24.364Z,20.22
2022-09-15T06:44:50.945Z,20.27
2022-09-15T06:47:17.527Z,20.30
2022-09-15T06:49:44.083Z,20.34
2022-09-15T06:52:10.647Z,20.39
2022-09-15T06:54:37.218Z,20.42
2022-09-15T06:57:04.020Z,20.45
2022-09-15T06:59:30.526Z,20.46
2022-09-15T07:01:59.382Z,20.48
2022-09-15T07:04:27.895Z,20.52
2022-09-15T07:06:54.483Z,20.53
2022-09-15T07:09:21.010Z,20.57
2022-09-15T07:11:47.528Z,20.54
2022-09-15T07:14:14.035Z,20.52
2022-09-15T07:16:40.660Z,20.45
2022-09-15T07:19:07.195Z,20.40
2022-09-15T07:21:34.214Z,20.32
2022-09-15T07:24:05.109Z,20.23
2022-09-15T07:26:33.704Z,20.14
2022-09-15T07:29:03.694Z,20.06
2022-09-15T07:31:32.481Z,19.96
2022-09-15T07:33:59.957Z,19.89
2022-09-15T07:36:26.449Z,19.83
2022-09-15T07:38:53.217Z,19.80
2022-09-15T07:41:29.182Z,19.76
2022-09-15T07:43:58.011Z,19.73
2022-09-15T07:46:26.026Z,19.71
2022-09-15T07:48:54.168Z,19.70
2022-09-15T07:51:20.770Z,19.72
2022-09-15T07:53:48.299Z,19.75
2022-09-15T07:56:15.805Z,19.77
2022-09-15T07:58:42.319Z,19.79
2022-09-15T08:01:10.325Z,19.85
2022-09-15T08:03:39.659Z,19.81
2022-09-15T08:06:06.529Z,19.96
2022-09-15T08:08:33.005Z,20.05
2022-09-15T08:10:59.490Z,20.14
2022-09-15T08:13:26.056Z,20.21
2022-09-15T08:15:52.635Z,20.27
2022-09-15T08:18:19.225Z,20.36
2022-09-15T08:20:45.720Z,20.46
2022-09-15T08:23:12.276Z,20.51
2022-09-15T08:25:39.268Z,20.60
2022-09-15T08:28:05.773Z,20.68
2022-09-15T08:30:32.597Z,20.72
2022-09-15T08:32:59.060Z,20.79
2022-09-15T08:35:25.599Z,20.88
2022-09-15T08:37:53.776Z,20.94
2022-09-15T08:40:26.542Z,20.99
2022-09-15T08:42:57.696Z,21.11
2022-09-15T08:45:34.001Z,21.17
2022-09-15T08:48:06.032Z,21.25
2022-09-15T08:50:39.838Z,21.33
2022-09-15T08:53:20.031Z,21.44
2022-09-15T08:55:59.954Z,21.53
2022-09-15T08:58:31.319Z,21.60
2022-09-15T09:01:10.495Z,21.66
2022-09-15T09:03:54.022Z,21.73
2022-09-15T09:06:31.044Z,21.80
2022-09-15T09:09:05.217Z,21.86
2022-09-15T09:11:37.444Z,21.93
2022-09-15T09:14:21.861Z,21.99
2022-09-15T09:16:58.335Z,22.06
2022-09-15T09:19:54.241Z,22.12
2022-09-15T09:22:23.966Z,22.20
2022-09-15T09:24:53.338Z,22.32
2022-09-15T09:27:32.951Z,22.42
2022-09-15T09:30:06.870Z,22.53
2022-09-15T09:32:43.979Z,22.63
2022-09-15T09:35:23.979Z,22.81
2022-09-15T09:37:52.826Z,22.97
2022-09-15T09:40:20.023Z,23.06
2022-09-15T09:42:46.849Z,23.16
2022-09-15T09:45:16.508Z,23.23
2022-09-15T09:47:43.097Z,23.29
2022-09-15T09:50:31.002Z,23.34
2022-09-15T09:52:58.125Z,23.40
2022-09-15T09:55:27.340Z,23.45
2022-09-15T09:58:00.969Z,23.50
2022-09-15T10:00:37.023Z,23.49
2022-09-15T10:03:17.108Z,23.54
2022-09-15T10:05:45.217Z,23.60
2022-09-15T10:08:16.598Z,23.58
2022-09-15T10:10:51.278Z,23.60
2022-09-15T10:13:17.866Z,23.67
2022-09-15T10:15:53.112Z,23.64
2022-09-15T10:18:33.614Z,23.63
2022-09-15T10:21:03.146Z,23.69
2022-09-15T10:23:31.694Z,23.71
2022-09-15T10:26:19.659Z,23.70
2022-09-15T10:29:13.464Z,23.66
2022-09-15T10:31:41.168Z,23.71
2022-09-15T10:34:31.261Z,23.72
2022-09-15T10:37:16.130Z,23.80
2022-09-15T10:39:52.148Z,23.83
2022-09-15T10:42:35.480Z,23.86
2022-09-15T10:45:17.201Z,23.92
2022-09-15T10:48:05.274Z,23.99
2022-09-15T10:51:09.576Z,24.09
2022-09-15T10:53:57.691Z,24.18
2022-09-15T10:56:38.326Z,24.23
2022-09-15T10:59:37.118Z,24.30
2022-09-15T11:02:27.970Z,24.34
2022-09-15T11:05:07.120Z,24.35
2022-09-15T11:08:07.891Z,24.21
2022-09-15T11:10:48.241Z,24.29
2022-09-15T11:13:29.898Z,24.29
2022-09-15T11:16:31.683Z,24.32
2022-09-15T11:19:03.947Z,24.29
2022-09-15T11:21:43.068Z,24.29
2022-09-15T11:24:31.559Z,24.21
2022-09-15T11:27:01.435Z,24.27
2022-09-15T11:29:39.723Z,24.29
2022-09-15T11:32:12.688Z,24.33
2022-09-15T11:35:04.127Z,24.39
2022-09-15T11:37:40.215Z,24.50
2022-09-15T11:40:29.007Z,24.59
2022-09-15T11:43:16.306Z,24.74
2022-09-15T11:45:49.299Z,24.83
2022-09-15T11:48:21.336Z,24.92
2022-09-15T11:50:52.663Z,25.07
2022-09-15T11:53:32.392Z,25.13
2022-09-15T11:56:07.428Z,25.18
2022-09-15T11:58:48.327Z,25.25
2022-09-15T12:01:44.658Z,25.34
2022-09-15T12:04:32.207Z,25.37
2022-09-15T12:07:14.805Z,25.32
2022-09-15T12:09:41.659Z,25.34
2022-09-15T12:12:16.593Z,25.29
2022-09-15T12:14:48.388Z,25.21
2022-09-15T12:17:26.812Z,25.13
2022-09-15T12:20:06.000Z,25.03
2022-09-15T12:22:46.673Z,24.96
2022-09-15T12:25:20.183Z,24.88
2022-09-15T12:28:24.194Z,24.76
2022-09-15T12:31:11.715Z,24.61
2022-09-15T12:33:46.120Z,24.55
2022-09-15T12:36:36.280Z,24.47
2022-09-15T12:39:19.475Z,24.41
2022-09-15T12:42:05.296Z,24.38
2022-09-15T12:44:34.361Z,24.39
2022-09-15T12:47:03.185Z,24.39
2022-09-15T12:49:35.010Z,24.37
2022-09-15T12:52:05.044Z,24.36
2022-09-15T12:54:33.363Z,24.34
2022-09-15T12:57:00.878Z,24.33
2022-09-15T12:59:28.550Z,24.32
2022-09-15T13:01:56.054Z,24.23
2022-09-15T13:04:44.277Z,24.18
2022-09-15T13:07:16.281Z,24.16
2022-09-15T13:09:45.789Z,24.14
2022-09-15T13:12:17.630Z,24.06
2022-09-15T13:14:47.437Z,24.03
2022-09-15T13:17:24.045Z,24.00
2022-09-15T13:19:54.312Z,24.00
2022-09-15T13:22:30.292Z,23.98
2022-09-15T13:25:12.078Z,24.02
2022-09-15T13:27:42.264Z,24.04
2022-09-15T13:30:14.720Z,24.06
2022-09-15T13:32:43.741Z,24.12
2022-09-15T13:35:32.052Z,24.16
2022-09-15T13:38:20.263Z,24.14
2022-09-15T13:41:06.727Z,24.03
2022-09-15T13:43:54.984Z,24.13
2022-09-15T13:46:46.568Z,24.09
2022-09-15T13:49:13.058Z,24.11
2022-09-15T13:51:43.339Z,24.14
2022-09-15T13:54:17.924Z,24.23
2022-09-15T13:56:46.004Z,24.32
2022-09-15T13:59:25.291Z,24.36
2022-09-15T14:01:53.752Z,24.47
2022-09-15T14:04:24.043Z,24.52
2022-09-15T14:06:57.055Z,24.56
2022-09-15T14:09:31.872Z,24.62
2022-09-15T14:12:03.869Z,24.72
2022-09-15T14:14:36.192Z,24.67
2022-09-15T14:17:03.139Z,24.63
2022-09-15T14:19:33.094Z,24.58
2022-09-15T14:22:22.544Z,24.53
2022-09-15T14:24:50.656Z,24.47
2022-09-15T14:27:23.789Z,24.35
2022-09-15T14:29:52.328Z,24.31
2022-09-15T14:32:18.936Z,24.25
2022-09-15T14:34:49.244Z,24.23
2022-09-15T14:37:24.999Z,24.16
2022-09-15T14:39:53.051Z,24.13
2022-09-15T14:42:21.557Z,23.98
2022-09-15T14:47:35.765Z,23.93
2022-09-15T14:50:14.476Z,23.73
2022-09-15T14:52:43.164Z,23.37
2022-09-15T14:55:20.040Z,22.98
2022-09-15T14:57:56.076Z,22.60
2022-09-15T15:00:28.565Z,22.27
2022-09-15T15:03:06.680Z,21.97
2022-09-15T15:05:38.031Z,21.74
2022-09-15T15:08:07.912Z,21.55
2022-09-15T15:10:36.071Z,21.41
2022-09-15T15:13:08.914Z,21.30
2022-09-15T15:15:38.286Z,21.18
2022-09-15T15:18:06.521Z,21.10
2022-09-15T15:20:33.203Z,20.92
2022-09-15T15:23:24.940Z,20.66
2022-09-15T15:25:52.769Z,20.41
2022-09-15T15:28:30.819Z,20.12
2022-09-15T15:31:16.675Z,19.84
2022-09-15T15:33:53.472Z,19.67
2022-09-15T15:36:22.575Z,19.51
2022-09-15T15:38:54.384Z,19.37
2022-09-15T15:41:30.070Z,19.27
2022-09-15T15:44:02.197Z,19.19
2022-09-15T15:47:01.960Z,19.09
2022-09-15T15:49:31.862Z,19.03
2022-09-15T15:52:00.800Z,18.96
2022-09-15T15:54:27.600Z,18.91
2022-09-15T15:56:54.363Z,18.87
2022-09-15T15:59:21.288Z,18.83
2022-09-15T16:01:51.611Z,18.80
2022-09-15T16:04:18.342Z,18.77
2022-09-15T16:06:46.227Z,18.76
2022-09-15T16:09:14.674Z,18.74
2022-09-15T16:11:42.114Z,18.75
2022-09-15T16:14:11.918Z,18.75
2022-09-15T16:16:38.512Z,18.73
2022-09-15T16:19:05.094Z,18.74
2022-09-15T16:21:34.986Z,18.74
2022-09-15T16:24:01.679Z,18.76
2022-09-15T16:26:28.218Z,18.78
2022-09-15T16:28:54.709Z,18.79
2022-09-15T16:31:21.243Z,18.79
2022-09-15T16:33:47.771Z,18.81
2022-09-15T16:36:17.306Z,18.81
2022-09-15T16:38:44.852Z,18.82
2022-09-15T16:41:17.413Z,18.82
2022-09-15T16:43:45.000Z,18.83
2022-09-15T16:46:13.422Z,18.83
2022-09-15T16:48:41.678Z,18.88
2022-09-15T16:51:27.896Z,18.72
2022-09-15T16:53:55.277Z,18.79
2022-09-15T16:56:21.754Z,18.77
2022-09-15T16:58:48.274Z,18.73
2022-09-15T17:01:22.501Z,18.71
2022-09-15T17:03:51.511Z,18.64
2022-09-15T17:06:18.133Z,18.58
2022-09-15T17:08:45.306Z,18.51
2022-09-15T17:11:17.663Z,18.44
2022-09-15T17:13:45.208Z,18.41
2022-09-15T17:16:14.578Z,18.39
2022-09-15T17:18:41.124Z,18.32
2022-09-15T17:21:11.284Z,18.30
2022-09-15T17:23:40.444Z,18.23
2022-09-15T17:26:12.634Z,18.16
2022-09-15T17:28:39.429Z,18.06
2022-09-15T17:31:16.385Z,17.95
2022-09-15T17:33:43.373Z,17.85
2022-09-15T17:36:10.646Z,17.79
2022-09-15T17:38:37.291Z,17.70
2022-09-15T17:41:04.253Z,17.67
2022-09-15T17:43:31.393Z,17.59
2022-09-15T17:45:58.442Z,17.57
2022-09-15T17:48:25.326Z,17.52
2022-09-15T17:50:52.109Z,17.50
2022-09-15T17:53:21.111Z,17.47
2022-09-15T17:55:48.948Z,17.48
2022-09-15T17:58:16.171Z,17.44
2022-09-15T18:00:44.085Z,17.39
2022-09-15T18:03:31.801Z,17.37
2022-09-15T18:05:59.735Z,17.34
2022-09-15T18:08:27.112Z,17.32
2022-09-15T18:10:54.129Z,17.30
2022-09-15T18:13:23.811Z,17.28
2022-09-15T18:15:50.740Z,17.25
2022-09-15T18:18:22.857Z,17.25
2022-09-15T18:20:50.584Z,17.24
2022-09-15T18:23:22.802Z,17.22
2022-09-15T18:25:50.162Z,17.23
2022-09-15T18:28:17.970Z,17.25
2022-09-15T18:30:47.121Z,17.24
2022-09-15T18:33:15.230Z,17.23
2022-09-15T18:35:42.142Z,17.14
2022-09-15T18:38:09.486Z,17.24
2022-09-15T18:40:36.707Z,17.27
2022-09-15T18:43:03.431Z,17.25
2022-09-15T18:45:29.905Z,17.24
2022-09-15T18:47:56.367Z,17.23
2022-09-15T18:50:24.045Z,17.24
2022-09-15T18:52:50.542Z,17.25
2022-09-15T18:55:20.423Z,17.28
2022-09-15T18:57:47.175Z,17.30
2022-09-15T19:00:17.069Z,17.33
2022-09-15T19:02:44.001Z,17.35
2022-09-15T19:05:11.095Z,17.38
2022-09-15T19:07:38.488Z,17.38
2022-09-15T19:10:07.544Z,17.39
2022-09-15T19:12:37.570Z,17.39
2022-09-15T19:15:10.630Z,17.40
2022-09-15T19:17:38.308Z,17.38
2022-09-15T19:20:06.414Z,17.38
2022-09-15T19:22:33.043Z,17.26
2022-09-15T19:24:59.984Z,17.35
2022-09-15T19:27:26.588Z,17.37
2022-09-15T19:29:53.170Z,17.37
2022-09-15T19:32:19.699Z,17.36
2022-09-15T19:34:46.989Z,17.38
2022-09-15T19:37:18.684Z,17.38
2022-09-15T19:39:46.837Z,17.41
2022-09-15T19:45:00.034Z,17.43
2022-09-15T19:47:26.860Z,17.45
2022-09-15T19:49:53.362Z,17.45
2022-09-15T19:52:19.959Z,17.47
2022-09-15T19:54:46.487Z,17.48
2022-09-15T19:57:13.169Z,17.47
2022-09-15T19:59:40.020Z,17.48
2022-09-15T20:02:06.511Z,17.49
2022-09-15T20:04:33.194Z,17.50
2022-09-15T20:06:59.636Z,17.50
2022-09-15T20:09:26.107Z,17.51
2022-09-15T20:11:52.650Z,17.52
2022-09-15T20:14:19.128Z,17.52
2022-09-15T20:16:45.722Z,17.53
2022-09-15T20:19:12.712Z,17.54
2022-09-15T20:21:55.296Z,17.55
2022-09-15T20:24:22.563Z,17.55
2022-09-15T20:26:49.628Z,17.55
2022-09-15T20:29:16.184Z,17.55
2022-09-15T20:31:43.127Z,17.54
2022-09-15T20:34:09.612Z,17.52
2022-09-15T20:36:37.841Z,17.51
2022-09-15T20:39:10.308Z,17.49
2022-09-15T20:41:37.111Z,17.48
2022-09-15T20:44:03.670Z,17.47
2022-09-15T20:46:30.221Z,17.46
2022-09-15T20:48:56.750Z,17.44
2022-09-15T20:51:25.366Z,17.43
2022-09-15T20:53:55.062Z,17.41
2022-09-15T20:56:23.806Z,17.41
2022-09-15T20:58:51.527Z,17.40
2022-09-15T21:01:21.243Z,17.38
2022-09-15T21:03:47.800Z,17.39
2022-09-15T21:06:19.647Z,17.38
2022-09-15T21:08:47.236Z,17.36
2022-09-15T21:11:14.166Z,17.34
2022-09-15T21:13:41.751Z,17.33
2022-09-15T21:16:11.023Z,17.32
2022-09-15T21:18:39.338Z,17.31
2022-09-15T21:21:07.604Z,17.28
2022-09-15T21:23:39.235Z,17.25
2022-09-15T21:26:08.550Z,17.21
2022-09-15T21:28:35.199Z,17.15
2022-09-15T21:31:13.921Z,17.10
2022-09-15T21:33:41.023Z,17.07
2022-09-15T21:36:19.551Z,17.00
2022-09-15T21:38:46.891Z,17.00
2022-09-15T21:41:15.728Z,16.97
2022-09-15T21:43:45.866Z,16.95
2022-09-15T21:46:17.671Z,16.94
2022-09-15T21:48:45.324Z,16.93
2022-09-15T21:51:13.144Z,16.91
2022-09-15T21:53:40.310Z,16.88
2022-09-15T21:56:09.123Z,16.86
2022-09-15T21:58:42.936Z,16.85
2022-09-15T22:01:18.238Z,16.84
2022-09-15T22:03:52.347Z,16.84
2022-09-15T22:06:20.940Z,16.84
2022-09-15T22:08:48.099Z,16.82
2022-09-15T22:11:14.651Z,16.82
2022-09-15T22:13:43.307Z,16.82
2022-09-15T22:16:16.770Z,16.80
2022-09-15T22:18:44.468Z,16.79
2022-09-15T22:21:10.876Z,16.77
2022-09-15T22:23:38.066Z,16.76
2022-09-15T22:26:07.083Z,16.75
2022-09-15T22:28:33.915Z,16.75
2022-09-15T22:31:02.507Z,16.75
2022-09-15T22:33:30.067Z,16.76
2022-09-15T22:35:56.919Z,16.77
2022-09-15T22:38:24.995Z,16.78
2022-09-15T22:40:51.523Z,16.79
2022-09-15T22:43:18.065Z,16.82
2022-09-15T22:45:44.653Z,16.82
2022-09-15T22:48:11.229Z,16.82
2022-09-15T22:50:37.976Z,16.84
2022-09-15T22:53:04.501Z,16.85
2022-09-15T22:55:31.908Z,16.85
2022-09-15T22:57:58.577Z,16.86
2022-09-15T23:00:25.073Z,16.88
2022-09-15T23:02:51.596Z,16.89
2022-09-15T23:05:18.109Z,16.91
2022-09-15T23:07:44.569Z,16.93
2022-09-15T23:10:11.153Z,16.92
2022-09-15T23:12:37.622Z,16.94
2022-09-15T23:15:05.253Z,16.95
2022-09-15T23:17:31.981Z,16.96
2022-09-15T23:19:58.538Z,16.98
2022-09-15T23:22:25.177Z,17.00
2022-09-15T23:24:51.693Z,17.01
2022-09-15T23:27:18.645Z,17.02
2022-09-15T23:29:45.264Z,17.04
2022-09-15T23:32:11.814Z,17.05
2022-09-15T23:34:38.281Z,17.06
2022-09-15T23:37:04.794Z,17.07
2022-09-15T23:39:31.334Z,17.05
2022-09-15T23:41:57.841Z,17.04
2022-09-15T23:44:24.354Z,17.03
2022-09-15T23:46:50.858Z,17.03
2022-09-15T23:49:18.848Z,17.03
2022-09-15T23:51:45.498Z,17.01
2022-09-15T23:54:12.014Z,17.02
2022-09-15T23:56:38.580Z,17.04
2022-09-15T23:59:05.119Z,17.06
